createdAt,value
2022-12-08T00:00:07.431Z,3.10
2022-12-08T00:02:34.208Z,3.20
2022-12-08T00:05:19.739Z,3.20
2022-12-08T00:08:05.041Z,3.20
2022-12-08T00:13:18.400Z,3.30
2022-12-08T00:15:45.114Z,3.40
2022-12-08T00:18:12.396Z,3.40
2022-12-08T00:20:39.043Z,3.40
2022-12-08T00:23:05.844Z,3.30
2022-12-08T00:25:35.529Z,3.40
2022-12-08T00:28:02.268Z,3.40
2022-12-08T00:30:28.937Z,3.40
2022-12-08T00:32:55.592Z,3.40
2022-12-08T00:35:22.278Z,3.40
2022-12-08T00:37:48.878Z,3.40
2022-12-08T00:40:15.603Z,3.30
2022-12-08T00:42:42.193Z,3.30
2022-12-08T00:45:09.128Z,3.40
2022-12-08T00:47:35.755Z,3.40
2022-12-08T00:50:02.866Z,3.40
2022-12-08T00:52:29.733Z,3.50
2022-12-08T00:54:56.412Z,3.50
2022-12-08T00:57:23.058Z,3.50
2022-12-08T00:59:49.732Z,3.50
2022-12-08T01:02:16.334Z,3.50
2022-12-08T01:04:43.056Z,3.40
2022-12-08T01:07:09.765Z,3.40
2022-12-08T01:09:36.564Z,3.50
2022-12-08T01:12:03.482Z,3.60
2022-12-08T01:14:30.154Z,3.60
2022-12-08T01:16:57.041Z,3.50
2022-12-08T01:19:23.714Z,3.40
2022-12-08T01:21:50.355Z,3.40
2022-12-08T01:24:19.565Z,3.50
2022-12-08T01:26:47.681Z,3.50
2022-12-08T01:29:15.033Z,3.60
2022-12-08T01:31:41.858Z,3.50
2022-12-08T01:34:09.749Z,3.50
2022-12-08T01:36:37.264Z,3.40
2022-12-08T01:39:07.807Z,3.40
2022-12-08T01:41:36.202Z,3.40
2022-12-08T01:44:02.871Z,3.40
2022-12-08T01:46:32.085Z,3.60
2022-12-08T01:49:05.602Z,3.60
2022-12-08T01:51:38.355Z,3.60
2022-12-08T01:54:06.942Z,3.60
2022-12-08T01:56:43.554Z,3.60
2022-12-08T01:59:11.641Z,3.60
2022-12-08T02:01:38.938Z,3.50
2022-12-08T02:04:06.611Z,3.50
2022-12-08T02:06:37.030Z,3.60
2022-12-08T02:09:05.388Z,3.50
2022-12-08T02:11:32.036Z,3.60
2022-12-08T02:14:01.113Z,3.60
2022-12-08T02:16:43.346Z,3.40
2022-12-08T02:19:31.246Z,3.50
2022-12-08T02:22:07.103Z,3.60
2022-12-08T02:24:50.404Z,3.70
2022-12-08T02:27:46.286Z,3.50
2022-12-08T02:30:20.248Z,3.50
2022-12-08T02:32:56.110Z,3.60
2022-12-08T02:35:30.253Z,3.60
2022-12-08T02:37:59.458Z,3.60
2022-12-08T02:40:39.623Z,3.60
2022-12-08T02:43:27.073Z,3.60
2022-12-08T02:46:00.932Z,3.50
2022-12-08T02:48:29.245Z,3.50
2022-12-08T02:50:55.962Z,3.50
2022-12-08T02:53:22.573Z,3.40
2022-12-08T02:56:18.211Z,3.50
2022-12-08T02:59:03.857Z,3.40
2022-12-08T03:01:56.355Z,3.50
2022-12-08T03:04:48.943Z,3.60
2022-12-08T03:07:25.023Z,3.50
2022-12-08T03:09:56.416Z,3.60
2022-12-08T03:12:37.073Z,3.70
2022-12-08T03:15:11.363Z,3.70
2022-12-08T03:17:43.483Z,3.70
2022-12-08T03:20:14.073Z,3.70
2022-12-08T03:22:42.079Z,3.70
2022-12-08T03:25:13.312Z,3.70
2022-12-08T03:27:40.310Z,3.60
2022-12-08T03:30:07.823Z,3.60
2022-12-08T03:32:47.811Z,3.50
2022-12-08T03:35:19.690Z,3.50
2022-12-08T03:37:46.488Z,3.60
2022-12-08T03:40:17.469Z,3.40
2022-12-08T03:42:44.538Z,3.40
2022-12-08T03:45:11.504Z,3.50
2022-12-08T03:47:38.356Z,3.50
2022-12-08T03:50:06.291Z,3.40
2022-12-08T03:52:33.351Z,3.30
2022-12-08T03:55:00.154Z,3.20
2022-12-08T03:57:26.898Z,3.40
2022-12-08T03:59:53.527Z,3.20
2022-12-08T04:02:20.258Z,3.40
2022-12-08T04:04:46.955Z,3.50
2022-12-08T04:07:13.694Z,3.50
2022-12-08T04:09:41.615Z,3.40
2022-12-08T04:12:09.116Z,3.50
2022-12-08T04:14:35.756Z,3.60
2022-12-08T04:17:02.382Z,3.50
2022-12-08T04:19:29.391Z,3.50
2022-12-08T04:21:56.163Z,3.30
2022-12-08T04:24:22.799Z,3.50
2022-12-08T04:26:52.099Z,3.50
2022-12-08T04:29:18.945Z,3.60
2022-12-08T04:31:45.687Z,3.60
2022-12-08T04:34:12.482Z,3.60
2022-12-08T04:36:39.161Z,3.60
2022-12-08T04:39:05.804Z,3.60
2022-12-08T04:41:32.649Z,3.70
2022-12-08T04:43:59.282Z,3.60
2022-12-08T04:46:26.028Z,3.60
2022-12-08T04:48:52.751Z,3.70
2022-12-08T04:51:20.710Z,3.70
2022-12-08T04:53:47.752Z,3.70
2022-12-08T04:56:18.864Z,3.70
2022-12-08T04:58:45.938Z,3.60
2022-12-08T05:01:13.325Z,3.70
2022-12-08T05:03:40.131Z,3.60
2022-12-08T05:06:07.481Z,3.60
2022-12-08T05:08:34.205Z,3.70
2022-12-08T05:11:07.220Z,3.60
2022-12-08T05:13:33.924Z,3.60
2022-12-08T05:16:09.268Z,3.70
2022-12-08T05:18:36.818Z,3.70
2022-12-08T05:21:04.288Z,3.70
2022-12-08T05:23:31.207Z,3.50
2022-12-08T05:25:58.266Z,3.60
2022-12-08T05:28:42.680Z,3.70
2022-12-08T05:31:11.100Z,3.70
2022-12-08T05:33:37.809Z,3.70
2022-12-08T05:36:04.568Z,3.60
2022-12-08T05:38:31.426Z,3.50
2022-12-08T05:40:58.567Z,3.40
2022-12-08T05:43:25.271Z,3.60
2022-12-08T05:45:51.945Z,3.50
2022-12-08T05:48:18.713Z,3.50
2022-12-08T05:50:49.255Z,3.40
2022-12-08T05:53:17.588Z,3.50
2022-12-08T05:55:44.473Z,3.40
2022-12-08T05:58:16.056Z,3.50
2022-12-08T06:00:43.290Z,3.50
2022-12-08T06:03:11.913Z,3.50
2022-12-08T06:05:38.909Z,3.60
2022-12-08T06:08:05.741Z,3.70
2022-12-08T06:10:32.411Z,4.50
2022-12-08T06:12:59.067Z,5.70
2022-12-08T06:15:26.027Z,5.60
2022-12-08T06:17:52.780Z,5.00
2022-12-08T06:20:19.599Z,4.90
2022-12-08T06:22:46.279Z,4.90
2022-12-08T06:25:13.039Z,5.10
2022-12-08T06:27:39.720Z,4.90
2022-12-08T06:30:07.367Z,5.20
2022-12-08T06:32:34.301Z,5.40
2022-12-08T06:35:00.994Z,5.60
2022-12-08T06:37:27.621Z,5.70
2022-12-08T06:39:54.392Z,5.60
2022-12-08T06:42:39.603Z,5.50
2022-12-08T06:45:07.874Z,5.20
2022-12-08T06:47:34.906Z,4.60
2022-12-08T06:50:01.986Z,4.30
2022-12-08T06:52:28.789Z,4.10
2022-12-08T06:54:55.547Z,4.00
2022-12-08T06:57:23.980Z,3.90
2022-12-08T06:59:50.635Z,3.80
2022-12-08T07:02:17.532Z,3.80
2022-12-08T07:04:44.445Z,3.80
2022-12-08T07:07:11.193Z,3.60
2022-12-08T07:09:37.967Z,3.60
2022-12-08T07:12:05.103Z,3.70
2022-12-08T07:14:31.746Z,3.70
2022-12-08T07:16:58.465Z,3.70
2022-12-08T07:19:25.277Z,3.80
2022-12-08T07:21:51.948Z,3.80
2022-12-08T07:24:18.680Z,3.80
2022-12-08T07:26:45.332Z,3.80
2022-12-08T07:29:12.055Z,3.80
2022-12-08T07:31:38.762Z,3.80
2022-12-08T07:34:05.386Z,3.60
2022-12-08T07:36:32.868Z,3.70
2022-12-08T07:38:59.604Z,3.70
2022-12-08T07:41:26.634Z,3.70
2022-12-08T07:43:54.208Z,3.70
2022-12-08T07:46:22.904Z,3.70
2022-12-08T07:48:49.766Z,3.50
2022-12-08T07:51:17.088Z,3.50
2022-12-08T07:53:51.594Z,3.40
2022-12-08T07:56:20.132Z,3.50
2022-12-08T07:58:46.971Z,3.60
2022-12-08T08:01:32.159Z,3.50
2022-12-08T08:04:01.957Z,3.50
2022-12-08T08:06:28.765Z,3.70
2022-12-08T08:08:55.409Z,3.60
2022-12-08T08:11:22.858Z,3.60
2022-12-08T08:13:50.847Z,3.40
2022-12-08T08:16:18.598Z,3.60
2022-12-08T08:18:47.786Z,3.50
2022-12-08T08:21:45.459Z,3.50
2022-12-08T08:24:01.548Z,3.60
2022-12-08T08:26:28.216Z,3.60
2022-12-08T08:28:54.848Z,3.70
2022-12-08T08:31:25.959Z,3.80
2022-12-08T08:33:53.113Z,3.80
2022-12-08T08:36:19.850Z,3.70
2022-12-08T08:38:47.039Z,3.60
2022-12-08T08:41:13.783Z,3.60
2022-12-08T08:43:40.579Z,3.60
2022-12-08T08:46:08.968Z,3.60
2022-12-08T08:48:36.278Z,3.60
2022-12-08T08:51:10.672Z,3.60
2022-12-08T08:53:38.065Z,3.50
2022-12-08T08:56:10.936Z,3.40
2022-12-08T08:58:37.870Z,3.40
2022-12-08T09:01:04.781Z,3.30
2022-12-08T09:03:31.905Z,3.40
2022-12-08T09:05:58.721Z,3.30
2022-12-08T09:08:25.513Z,3.50
2022-12-08T09:10:52.264Z,3.40
2022-12-08T09:13:18.938Z,3.30
2022-12-08T09:15:45.885Z,3.40
2022-12-08T09:18:12.711Z,3.40
2022-12-08T09:20:39.331Z,3.40
2022-12-08T09:23:06.047Z,3.40
2022-12-08T09:25:32.699Z,3.60
2022-12-08T09:27:59.724Z,3.30
2022-12-08T09:30:26.347Z,3.40
2022-12-08T09:32:53.085Z,3.40
2022-12-08T09:35:19.872Z,3.60
2022-12-08T09:37:46.577Z,3.60
2022-12-08T09:40:19.896Z,3.60
2022-12-08T09:42:51.997Z,3.60
2022-12-08T09:45:20.158Z,3.50
2022-12-08T09:47:59.085Z,3.70
2022-12-08T09:50:49.284Z,3.70
2022-12-08T09:53:33.822Z,3.60
2022-12-08T09:56:25.309Z,3.60
2022-12-08T09:59:16.892Z,3.70
2022-12-08T10:01:43.728Z,3.60
2022-12-08T10:04:34.804Z,3.70
2022-12-08T10:07:37.569Z,3.90
2022-12-08T10:10:39.101Z,3.80
2022-12-08T10:13:47.097Z,3.80
2022-12-08T10:16:36.756Z,3.80
2022-12-08T10:19:18.472Z,3.70
2022-12-08T10:21:46.490Z,3.80
2022-12-08T10:24:34.321Z,3.80
2022-12-08T10:27:02.609Z,3.70
2022-12-08T10:29:29.617Z,3.60
2022-12-08T10:31:58.766Z,3.80
2022-12-08T10:34:26.756Z,3.80
2022-12-08T10:36:58.851Z,3.90
2022-12-08T10:39:33.281Z,3.80
2022-12-08T10:42:09.742Z,3.90
2022-12-08T10:45:08.562Z,3.90
2022-12-08T10:47:40.716Z,3.90
2022-12-08T10:50:29.054Z,3.90
2022-12-08T10:52:58.762Z,3.90
2022-12-08T10:55:26.093Z,4.00
2022-12-08T10:57:52.788Z,4.10
2022-12-08T11:00:26.939Z,4.10
2022-12-08T11:03:05.343Z,4.00
2022-12-08T11:05:34.458Z,4.10
2022-12-08T11:08:02.946Z,4.10
2022-12-08T11:10:42.309Z,4.10
2022-12-08T11:13:19.947Z,4.10
2022-12-08T11:15:47.619Z,4.10
2022-12-08T11:18:26.773Z,4.00
2022-12-08T11:21:06.587Z,4.00
2022-12-08T11:23:36.182Z,4.10
2022-12-08T11:26:28.714Z,4.00
2022-12-08T11:28:56.882Z,4.10
2022-12-08T11:31:34.398Z,4.10
2022-12-08T11:34:01.848Z,4.00
2022-12-08T11:36:30.547Z,4.10
2022-12-08T11:39:00.548Z,4.10
2022-12-08T11:41:36.000Z,4.10
2022-12-08T11:44:12.801Z,4.10
2022-12-08T11:46:39.414Z,4.20
2022-12-08T11:49:15.301Z,4.10
2022-12-08T11:51:59.787Z,4.10
2022-12-08T11:54:36.088Z,4.30
2022-12-08T11:57:05.696Z,4.30
2022-12-08T11:59:38.300Z,4.30
2022-12-08T12:02:06.473Z,4.30
2022-12-08T12:04:46.392Z,4.30
2022-12-08T12:07:57.491Z,4.30
2022-12-08T12:10:35.586Z,4.40
2022-12-08T12:13:17.320Z,4.40
2022-12-08T12:16:28.128Z,4.30
2022-12-08T12:19:02.819Z,4.30
2022-12-08T12:21:46.139Z,4.30
2022-12-08T12:24:35.443Z,4.30
2022-12-08T12:27:08.160Z,4.30
2022-12-08T12:29:38.296Z,4.40
2022-12-08T12:32:08.542Z,4.30
2022-12-08T12:34:56.938Z,4.40
2022-12-08T12:37:41.575Z,4.40
2022-12-08T12:40:11.405Z,4.40
2022-12-08T12:42:42.457Z,4.40
2022-12-08T12:45:17.605Z,4.30
2022-12-08T12:47:52.546Z,4.30
2022-12-08T12:50:33.503Z,4.40
2022-12-08T12:53:17.027Z,4.40
2022-12-08T12:56:04.103Z,4.30
2022-12-08T12:58:30.707Z,4.40
2022-12-08T13:01:15.308Z,4.40
2022-12-08T13:03:45.766Z,4.40
2022-12-08T13:06:14.996Z,4.50
2022-12-08T13:08:51.034Z,4.50
2022-12-08T13:11:17.929Z,4.50
2022-12-08T13:14:04.618Z,4.50
2022-12-08T13:16:39.985Z,4.50
2022-12-08T13:19:14.857Z,4.50
2022-12-08T13:21:41.666Z,4.60
2022-12-08T13:24:14.041Z,4.50
2022-12-08T13:26:45.652Z,4.60
2022-12-08T13:29:17.227Z,4.60
2022-12-08T13:31:54.369Z,4.60
2022-12-08T13:34:41.602Z,4.60
2022-12-08T13:37:11.286Z,4.70
2022-12-08T13:40:03.162Z,4.70
2022-12-08T13:42:47.987Z,4.80
2022-12-08T13:45:59.127Z,4.80
2022-12-08T13:49:59.259Z,4.80
2022-12-08T13:57:26.814Z,4.90
2022-12-08T13:59:53.570Z,4.80
2022-12-08T14:02:47.126Z,4.80
2022-12-08T14:05:18.658Z,4.90
2022-12-08T14:07:48.218Z,4.80
2022-12-08T14:10:29.410Z,4.90
2022-12-08T14:13:01.597Z,4.90
2022-12-08T14:15:32.685Z,4.80
2022-12-08T14:18:03.728Z,4.70
2022-12-08T14:20:33.831Z,4.50
2022-12-08T14:23:09.446Z,4.40
2022-12-08T14:25:36.195Z,4.50
2022-12-08T14:28:04.983Z,4.50
2022-12-08T14:30:32.719Z,4.50
2022-12-08T14:33:01.584Z,4.40
2022-12-08T14:35:31.443Z,4.30
2022-12-08T14:38:15.920Z,4.20
2022-12-08T14:40:48.202Z,4.30
2022-12-08T14:43:18.972Z,4.00
2022-12-08T14:45:45.554Z,4.10
2022-12-08T14:48:39.496Z,4.00
2022-12-08T14:51:21.489Z,4.10
2022-12-08T14:54:01.117Z,4.00
2022-12-08T14:56:56.855Z,4.10
2022-12-08T14:59:32.407Z,3.90
2022-12-08T15:02:21.695Z,3.90
2022-12-08T15:04:54.394Z,3.80
2022-12-08T15:07:24.824Z,3.90
2022-12-08T15:10:22.830Z,3.90
2022-12-08T15:13:10.875Z,3.70
2022-12-08T15:15:56.821Z,3.60
2022-12-08T15:18:38.693Z,4.00
2022-12-08T15:21:09.026Z,3.70
2022-12-08T15:23:42.657Z,3.80
2022-12-08T15:26:14.789Z,3.70
2022-12-08T15:28:41.475Z,3.60
2022-12-08T15:31:09.344Z,3.70
2022-12-08T15:33:37.246Z,3.70
2022-12-08T15:36:04.279Z,3.70
2022-12-08T15:38:31.007Z,3.80
2022-12-08T15:40:58.842Z,3.90
2022-12-08T15:43:26.140Z,4.00
2022-12-08T15:45:59.490Z,3.90
2022-12-08T15:48:28.943Z,4.00
2022-12-08T15:50:56.546Z,4.00
2022-12-08T15:53:23.477Z,4.00
2022-12-08T15:56:19.043Z,4.00
2022-12-08T15:58:55.249Z,4.10
2022-12-08T16:01:22.776Z,4.10
2022-12-08T16:09:41.557Z,4.00
2022-12-08T16:13:40.334Z,3.90
2022-12-08T16:18:19.034Z,3.90
2022-12-08T16:23:46.691Z,4.00
2022-12-08T16:26:28.669Z,3.80
2022-12-08T16:29:03.503Z,3.70
2022-12-08T16:31:31.221Z,3.60
2022-12-08T16:33:58.086Z,3.70
2022-12-08T16:36:24.868Z,3.80
2022-12-08T16:38:51.587Z,3.80
2022-12-08T16:41:37.166Z,3.80
2022-12-08T16:44:06.097Z,3.90
2022-12-08T16:46:33.989Z,3.80
2022-12-08T16:49:00.673Z,3.90
2022-12-08T16:51:27.784Z,3.90
2022-12-08T16:53:56.974Z,3.80
2022-12-08T16:56:30.384Z,3.60
2022-12-08T16:58:59.197Z,3.70
2022-12-08T17:01:26.071Z,3.90
2022-12-08T17:04:22.424Z,3.90
2022-12-08T17:06:39.964Z,3.70
2022-12-08T17:09:06.707Z,3.70
2022-12-08T17:11:39.169Z,3.80
2022-12-08T17:14:09.277Z,3.90
2022-12-08T17:16:36.041Z,3.70
2022-12-08T17:19:02.764Z,3.70
2022-12-08T17:21:29.828Z,3.90
2022-12-08T17:23:56.485Z,3.90
2022-12-08T17:26:23.148Z,3.90
2022-12-08T17:29:05.547Z,3.80
2022-12-08T17:31:33.079Z,3.90
2022-12-08T17:34:06.375Z,3.90
2022-12-08T17:36:33.120Z,3.90
2022-12-08T17:39:00.883Z,3.80
2022-12-08T17:41:27.802Z,3.70
2022-12-08T17:43:54.628Z,3.70
2022-12-08T17:46:22.655Z,3.80
2022-12-08T17:48:50.057Z,3.60
2022-12-08T17:51:17.143Z,3.60
2022-12-08T17:53:44.005Z,3.50
2022-12-08T17:56:20.324Z,3.60
2022-12-08T17:58:51.326Z,3.60
2022-12-08T18:01:21.928Z,3.60
2022-12-08T18:03:48.631Z,3.60
2022-12-08T18:06:17.475Z,3.60
2022-12-08T18:08:44.846Z,3.60
2022-12-08T18:11:17.579Z,3.70
2022-12-08T18:13:45.834Z,3.60
2022-12-08T18:16:14.788Z,3.60
2022-12-08T18:18:42.147Z,3.70
2022-12-08T18:21:09.491Z,3.60
2022-12-08T18:23:40.265Z,3.70
2022-12-08T18:26:09.104Z,3.80
2022-12-08T18:28:36.819Z,3.80
2022-12-08T18:31:09.791Z,3.80
2022-12-08T18:33:37.497Z,3.70
2022-12-08T18:36:11.905Z,3.70
2022-12-08T18:38:39.248Z,3.70
2022-12-08T18:41:11.656Z,3.70
2022-12-08T18:43:38.630Z,3.70
2022-12-08T18:46:09.366Z,3.60
2022-12-08T18:48:37.757Z,3.70
2022-12-08T18:51:09.105Z,3.60
2022-12-08T18:53:35.873Z,3.50
2022-12-08T18:56:02.670Z,3.60
2022-12-08T18:58:29.323Z,3.60
2022-12-08T19:00:56.260Z,3.50
2022-12-08T19:03:23.024Z,3.50
2022-12-08T19:05:49.636Z,3.50
2022-12-08T19:08:16.355Z,3.60
2022-12-08T19:10:43.061Z,3.60
2022-12-08T19:13:10.740Z,3.50
2022-12-08T19:15:37.422Z,3.40
2022-12-08T19:18:04.220Z,3.50
2022-12-08T19:20:30.864Z,3.60
2022-12-08T19:22:57.623Z,3.50
2022-12-08T19:25:25.342Z,3.50
2022-12-08T19:27:52.031Z,3.50
2022-12-08T19:30:18.769Z,3.50
2022-12-08T19:32:45.433Z,3.50
2022-12-08T19:35:12.575Z,3.50
2022-12-08T19:37:39.545Z,3.50
2022-12-08T19:40:25.321Z,3.40
2022-12-08T19:43:10.853Z,3.40
2022-12-08T19:45:38.407Z,3.40
2022-12-08T19:48:05.389Z,3.40
2022-12-08T19:50:38.231Z,3.40
2022-12-08T19:53:11.126Z,3.50
2022-12-08T19:55:38.858Z,3.40
2022-12-08T19:58:06.498Z,3.40
2022-12-08T20:00:34.278Z,3.50
2022-12-08T20:03:02.118Z,3.50
2022-12-08T20:05:30.031Z,3.40
2022-12-08T20:07:57.410Z,3.50
2022-12-08T20:10:38.655Z,3.40
2022-12-08T20:13:24.396Z,3.50
2022-12-08T20:15:51.536Z,3.50
2022-12-08T20:18:18.802Z,3.50
2022-12-08T20:20:46.704Z,3.60
2022-12-08T20:23:14.279Z,3.60
2022-12-08T20:25:42.726Z,3.60
2022-12-08T20:28:09.519Z,3.60
2022-12-08T20:30:38.984Z,3.60
2022-12-08T20:33:05.761Z,3.60
2022-12-08T20:35:32.636Z,3.50
2022-12-08T20:37:59.352Z,3.50
2022-12-08T20:40:26.139Z,3.50
2022-12-08T20:42:52.870Z,3.50
2022-12-08T20:45:19.705Z,3.40
2022-12-08T20:47:46.444Z,3.40
2022-12-08T20:50:13.126Z,3.40
2022-12-08T20:52:40.259Z,3.40
2022-12-08T20:55:07.893Z,3.40
2022-12-08T20:57:34.713Z,3.40
2022-12-08T21:00:01.729Z,3.40
2022-12-08T21:02:28.773Z,3.40
2022-12-08T21:04:55.832Z,3.40
2022-12-08T21:07:22.550Z,3.40
2022-12-08T21:09:49.381Z,3.40
2022-12-08T21:12:16.196Z,3.30
2022-12-08T21:14:43.515Z,3.40
2022-12-08T21:17:10.485Z,3.30
2022-12-08T21:19:37.438Z,3.30
2022-12-08T21:22:04.441Z,3.30
2022-12-08T21:24:34.244Z,3.30
2022-12-08T21:27:01.609Z,3.30
2022-12-08T21:29:28.594Z,3.20
2022-12-08T21:31:57.344Z,3.30
2022-12-08T21:34:25.778Z,3.30
2022-12-08T21:36:53.213Z,3.30
2022-12-08T21:39:20.115Z,3.30
2022-12-08T21:42:05.326Z,3.30
2022-12-08T21:44:35.304Z,3.30
2022-12-08T21:47:03.511Z,3.30
2022-12-08T21:49:30.528Z,3.30
2022-12-08T21:51:57.345Z,3.20
2022-12-08T21:54:24.428Z,3.30
2022-12-08T21:56:51.367Z,3.30
2022-12-08T21:59:18.775Z,3.30
2022-12-08T22:01:45.872Z,3.30
2022-12-08T22:04:17.482Z,3.30
2022-12-08T22:06:44.242Z,3.20
2022-12-08T22:09:13.442Z,3.20
2022-12-08T22:11:40.828Z,3.30
2022-12-08T22:14:12.578Z,3.20
2022-12-08T22:16:41.565Z,3.30
2022-12-08T22:19:08.437Z,3.20
2022-12-08T22:21:35.315Z,3.30
2022-12-08T22:24:02.224Z,3.20
2022-12-08T22:26:29.405Z,3.10
2022-12-08T22:28:56.265Z,3.10
2022-12-08T22:31:23.533Z,3.20
2022-12-08T22:33:51.333Z,3.10
2022-12-08T22:36:21.717Z,3.10
2022-12-08T22:38:49.197Z,3.10
2022-12-08T22:41:16.902Z,3.10
2022-12-08T22:43:44.424Z,3.30
2022-12-08T22:46:15.020Z,3.20
2022-12-08T22:48:42.240Z,3.20
2022-12-08T22:51:09.664Z,3.20
2022-12-08T22:53:37.019Z,3.20
2022-12-08T22:56:05.659Z,3.20
2022-12-08T22:58:32.912Z,3.20
2022-12-08T23:00:59.875Z,3.20
2022-12-08T23:03:26.949Z,3.10
2022-12-08T23:05:54.095Z,3.10
2022-12-08T23:08:21.028Z,3.10
2022-12-08T23:10:52.338Z,3.10
2022-12-08T23:13:20.159Z,3.20
2022-12-08T23:15:47.747Z,3.10
2022-12-08T23:18:18.756Z,3.10
2022-12-08T23:20:46.926Z,3.10
2022-12-08T23:23:13.930Z,3.10
2022-12-08T23:25:41.557Z,3.00
2022-12-08T23:28:08.792Z,3.00
2022-12-08T23:30:35.988Z,3.10
2022-12-08T23:33:02.673Z,3.10
2022-12-08T23:35:29.496Z,3.10
2022-12-08T23:37:56.391Z,3.00
2022-12-08T23:40:23.186Z,3.10
2022-12-08T23:42:50.051Z,3.10
2022-12-08T23:45:16.830Z,3.10
2022-12-08T23:47:43.706Z,3.10
2022-12-08T23:50:11.161Z,3.00
2022-12-08T23:52:39.851Z,3.00
2022-12-08T23:55:07.913Z,3.00
2022-12-08T23:57:39.120Z,3.00
